sensor_id;sensor_type;location;lat;lon;timestamp;pressure;altitude;pressure_sealevel;temperature;humidity
47154;BME280;32907;41.412;2.164;2024-01-25T00:02:05;102260.06;;;19.86;47.03
47154;BME280;32907;41.412;2.164;2024-01-25T00:04:33;102240.09;;;19.80;47.29
47154;BME280;32907;41.412;2.164;2024-01-25T00:07:01;102244.22;;;19.82;47.20
47154;BME280;32907;41.412;2.164;2024-01-25T00:09:30;102235.72;;;19.79;47.03
47154;BME280;32907;41.412;2.164;2024-01-25T00:11:58;102234.06;;;19.78;47.14
47154;BME280;32907;41.412;2.164;2024-01-25T00:14:27;102234.06;;;19.78;47.57
47154;BME280;32907;41.412;2.164;2024-01-25T00:16:55;102239.28;;;19.79;47.53
47154;BME280;32907;41.412;2.164;2024-01-25T00:19:23;102219.81;;;19.71;47.69
47154;BME280;32907;41.412;2.164;2024-01-25T00:21:51;102228.88;;;19.76;47.73
47154;BME280;32907;41.412;2.164;2024-01-25T00:24:19;102231.94;;;19.80;47.63
47154;BME280;32907;41.412;2.164;2024-01-25T00:26:47;102222.63;;;19.76;47.54
47154;BME280;32907;41.412;2.164;2024-01-25T00:29:16;102218.31;;;19.80;47.60
47154;BME280;32907;41.412;2.164;2024-01-25T00:31:44;102159.19;;;19.42;47.02
47154;BME280;32907;41.412;2.164;2024-01-25T00:34:13;102211.47;;;19.77;47.08
47154;BME280;32907;41.412;2.164;2024-01-25T00:36:41;102212.56;;;19.76;46.81
47154;BME280;32907;41.412;2.164;2024-01-25T00:39:10;102203.00;;;19.74;47.06
47154;BME280;32907;41.412;2.164;2024-01-25T00:41:38;102193.41;;;19.71;46.83
47154;BME280;32907;41.412;2.164;2024-01-25T00:44:08;102199.69;;;19.72;46.77
47154;BME280;32907;41.412;2.164;2024-01-25T00:46:36;102193.75;;;19.75;46.85
47154;BME280;32907;41.412;2.164;2024-01-25T00:49:05;102190.78;;;19.76;46.45
47154;BME280;32907;41.412;2.164;2024-01-25T00:51:33;102194.91;;;19.79;46.46
47154;BME280;32907;41.412;2.164;2024-01-25T00:54:02;102197.34;;;19.80;46.80
47154;BME280;32907;41.412;2.164;2024-01-25T00:56:31;102192.75;;;19.81;47.06
47154;BME280;32907;41.412;2.164;2024-01-25T00:58:59;102189.53;;;19.84;46.96
47154;BME280;32907;41.412;2.164;2024-01-25T01:01:28;102180.03;;;19.87;46.82
47154;BME280;32907;41.412;2.164;2024-01-25T01:03:58;102180.03;;;19.87;46.61
47154;BME280;32907;41.412;2.164;2024-01-25T01:06:27;102178.41;;;19.86;46.98
47154;BME280;32907;41.412;2.164;2024-01-25T01:08:55;102176.75;;;19.84;46.69
47154;BME280;32907;41.412;2.164;2024-01-25T01:11:24;102173.50;;;19.88;46.52
47154;BME280;32907;41.412;2.164;2024-01-25T01:13:52;102181.63;;;19.82;46.58
47154;BME280;32907;41.412;2.164;2024-01-25T01:16:20;102166.38;;;19.81;46.80
47154;BME280;32907;41.412;2.164;2024-01-25T01:18:49;102166.03;;;19.78;46.67
47154;BME280;32907;41.412;2.164;2024-01-25T01:21:17;102161.91;;;19.75;46.76
47154;BME280;32907;41.412;2.164;2024-01-25T01:23:46;102167.41;;;19.80;46.81
47154;BME280;32907;41.412;2.164;2024-01-25T01:26:14;102165.50;;;19.81;46.58
47154;BME280;32907;41.412;2.164;2024-01-25T01:28:42;102166.84;;;19.78;46.66
47154;BME280;32907;41.412;2.164;2024-01-25T01:31:10;102162.22;;;19.79;46.61
47154;BME280;32907;41.412;2.164;2024-01-25T01:33:38;102144.03;;;19.63;46.50
47154;BME280;32907;41.412;2.164;2024-01-25T01:36:06;102169.50;;;19.73;46.54
47154;BME280;32907;41.412;2.164;2024-01-25T01:38:35;102162.41;;;19.72;46.35
47154;BME280;32907;41.412;2.164;2024-01-25T01:41:03;102163.72;;;19.70;46.13
47154;BME280;32907;41.412;2.164;2024-01-25T01:43:31;102164.50;;;19.65;46.37
47154;BME280;32907;41.412;2.164;2024-01-25T01:46:04;102162.00;;;19.64;46.53
47154;BME280;32907;41.412;2.164;2024-01-25T01:48:35;102160.09;;;19.64;46.48
47154;BME280;32907;41.412;2.164;2024-01-25T01:51:03;102158.44;;;19.63;46.40
47154;BME280;32907;41.412;2.164;2024-01-25T01:53:32;102165.78;;;19.63;46.53
47154;BME280;32907;41.412;2.164;2024-01-25T01:56:01;102113.84;;;19.31;46.53
47154;BME280;32907;41.412;2.164;2024-01-25T01:58:30;102174.53;;;19.65;46.09
47154;BME280;32907;41.412;2.164;2024-01-25T02:00:59;102178.56;;;19.62;46.60
47154;BME280;32907;41.412;2.164;2024-01-25T02:03:29;102169.59;;;19.62;46.24
47154;BME280;32907;41.412;2.164;2024-01-25T02:05:58;102167.44;;;19.64;46.18
47154;BME280;32907;41.412;2.164;2024-01-25T02:08:31;102158.84;;;19.55;46.16
47154;BME280;32907;41.412;2.164;2024-01-25T02:10:59;102176.94;;;19.61;46.36
47154;BME280;32907;41.412;2.164;2024-01-25T02:13:28;102166.06;;;19.61;46.48
47154;BME280;32907;41.412;2.164;2024-01-25T02:15:56;102162.25;;;19.62;46.62
47154;BME280;32907;41.412;2.164;2024-01-25T02:18:24;102162.75;;;19.59;46.07
47154;BME280;32907;41.412;2.164;2024-01-25T02:20:52;102164.66;;;19.59;46.21
47154;BME280;32907;41.412;2.164;2024-01-25T02:23:22;102155.69;;;19.58;46.48
47154;BME280;32907;41.412;2.164;2024-01-25T02:25:50;102155.91;;;19.56;46.01
47154;BME280;32907;41.412;2.164;2024-01-25T02:28:18;102156.13;;;19.55;46.30
47154;BME280;32907;41.412;2.164;2024-01-25T02:30:46;102141.44;;;19.56;46.08
47154;BME280;32907;41.412;2.164;2024-01-25T02:33:14;102151.75;;;19.54;46.52
47154;BME280;32907;41.412;2.164;2024-01-25T02:35:43;102146.06;;;19.55;46.52
47154;BME280;32907;41.412;2.164;2024-01-25T02:38:11;102134.03;;;19.51;46.08
47154;BME280;32907;41.412;2.164;2024-01-25T02:40:42;102141.44;;;19.56;46.46
47154;BME280;32907;41.412;2.164;2024-01-25T02:43:10;102124.28;;;19.55;46.25
47154;BME280;32907;41.412;2.164;2024-01-25T02:45:38;102128.91;;;19.55;46.59
47154;BME280;32907;41.412;2.164;2024-01-25T02:48:07;102137.06;;;19.55;46.45
47154;BME280;32907;41.412;2.164;2024-01-25T02:50:35;102132.72;;;19.54;46.36
47154;BME280;32907;41.412;2.164;2024-01-25T02:53:04;102129.41;;;19.52;46.26
47154;BME280;32907;41.412;2.164;2024-01-25T02:55:33;102128.59;;;19.51;46.30
47154;BME280;32907;41.412;2.164;2024-01-25T02:58:01;102129.41;;;19.52;46.49
47154;BME280;32907;41.412;2.164;2024-01-25T03:00:29;102131.06;;;19.53;46.29
47154;BME280;32907;41.412;2.164;2024-01-25T03:02:58;102127.25;;;19.54;46.52
47154;BME280;32907;41.412;2.164;2024-01-25T03:05:27;102127.78;;;19.51;46.43
47154;BME280;32907;41.412;2.164;2024-01-25T03:07:55;102126.69;;;19.52;46.08
47154;BME280;32907;41.412;2.164;2024-01-25T03:10:24;102131.88;;;19.53;46.49
47154;BME280;32907;41.412;2.164;2024-01-25T03:12:52;102110.22;;;19.42;46.38
47154;BME280;32907;41.412;2.164;2024-01-25T03:15:21;102118.53;;;19.52;46.39
47154;BME280;32907;41.412;2.164;2024-01-25T03:17:49;102119.34;;;19.52;46.58
47154;BME280;32907;41.412;2.164;2024-01-25T03:20:17;102094.63;;;19.37;46.41
47154;BME280;32907;41.412;2.164;2024-01-25T03:22:45;102113.66;;;19.54;46.34
47154;BME280;32907;41.412;2.164;2024-01-25T03:25:14;102112.03;;;19.53;46.40
47154;BME280;32907;41.412;2.164;2024-01-25T03:27:42;102111.44;;;19.51;46.56
47154;BME280;32907;41.412;2.164;2024-01-25T03:30:11;102091.66;;;19.39;46.59
47154;BME280;32907;41.412;2.164;2024-01-25T03:32:39;102110.63;;;19.50;46.77
47154;BME280;32907;41.412;2.164;2024-01-25T03:35:08;102112.28;;;19.51;46.69
47154;BME280;32907;41.412;2.164;2024-01-25T03:37:36;102112.28;;;19.51;46.58
47154;BME280;32907;41.412;2.164;2024-01-25T03:40:05;102106.00;;;19.51;46.67
47154;BME280;32907;41.412;2.164;2024-01-25T03:42:33;102105.75;;;19.52;46.60
47154;BME280;32907;41.412;2.164;2024-01-25T03:45:02;102103.84;;;19.53;46.37
47154;BME280;32907;41.412;2.164;2024-01-25T03:47:31;102092.97;;;19.53;46.45
47154;BME280;32907;41.412;2.164;2024-01-25T03:49:59;102090.25;;;19.53;46.44
47154;BME280;32907;41.412;2.164;2024-01-25T03:52:28;102089.69;;;19.51;46.65
47154;BME280;32907;41.412;2.164;2024-01-25T03:54:58;102088.34;;;19.53;46.60
47154;BME280;32907;41.412;2.164;2024-01-25T03:57:26;102092.16;;;19.52;46.56
47154;BME280;32907;41.412;2.164;2024-01-25T03:59:54;102062.25;;;19.36;46.22
47154;BME280;32907;41.412;2.164;2024-01-25T04:02:22;102079.88;;;19.50;46.39
47154;BME280;32907;41.412;2.164;2024-01-25T04:04:51;102086.38;;;19.49;46.13
47154;BME280;32907;41.412;2.164;2024-01-25T04:07:19;102078.47;;;19.47;46.42
47154;BME280;32907;41.412;2.164;2024-01-25T04:09:47;102070.31;;;19.47;46.75
47154;BME280;32907;41.412;2.164;2024-01-25T04:12:15;102076.56;;;19.48;46.75
47154;BME280;32907;41.412;2.164;2024-01-25T04:14:43;102079.28;;;19.48;46.76
47154;BME280;32907;41.412;2.164;2024-01-25T04:17:11;102086.88;;;19.46;46.41
47154;BME280;32907;41.412;2.164;2024-01-25T04:19:39;102066.94;;;19.40;46.25
47154;BME280;32907;41.412;2.164;2024-01-25T04:22:07;102071.53;;;19.40;46.51
47154;BME280;32907;41.412;2.164;2024-01-25T04:24:35;102068.25;;;19.38;46.82
47154;BME280;32907;41.412;2.164;2024-01-25T04:27:04;102079.41;;;19.36;46.81
47154;BME280;32907;41.412;2.164;2024-01-25T04:29:32;102074.22;;;19.35;46.72
47154;BME280;32907;41.412;2.164;2024-01-25T04:32:00;102066.31;;;19.33;46.83
47154;BME280;32907;41.412;2.164;2024-01-25T04:34:29;102072.06;;;19.37;46.75
47154;BME280;32907;41.412;2.164;2024-01-25T04:36:57;102070.97;;;19.38;47.20
47154;BME280;32907;41.412;2.164;2024-01-25T04:39:26;102063.91;;;19.37;46.79
47154;BME280;32907;41.412;2.164;2024-01-25T04:41:54;102070.72;;;19.39;47.07
47154;BME280;32907;41.412;2.164;2024-01-25T04:44:22;102074.03;;;19.41;46.71
47154;BME280;32907;41.412;2.164;2024-01-25T04:46:50;102070.25;;;19.42;46.54
47154;BME280;32907;41.412;2.164;2024-01-25T04:49:20;102080.31;;;19.42;46.88
47154;BME280;32907;41.412;2.164;2024-01-25T04:51:50;102072.16;;;19.42;46.85
47154;BME280;32907;41.412;2.164;2024-01-25T04:54:19;102085.50;;;19.43;46.67
47154;BME280;32907;41.412;2.164;2024-01-25T04:56:47;102089.78;;;19.39;46.29
47154;BME280;32907;41.412;2.164;2024-01-25T04:59:15;102092.19;;;19.36;46.26
47154;BME280;32907;41.412;2.164;2024-01-25T05:01:43;102092.66;;;19.33;46.49
47154;BME280;32907;41.412;2.164;2024-01-25T05:04:12;102093.16;;;19.29;46.68
47154;BME280;32907;41.412;2.164;2024-01-25T05:06:40;102093.41;;;19.28;46.73
47154;BME280;32907;41.412;2.164;2024-01-25T05:09:09;102091.53;;;19.28;47.00
47154;BME280;32907;41.412;2.164;2024-01-25T05:11:39;102087.41;;;19.26;46.95
47154;BME280;32907;41.412;2.164;2024-01-25T05:14:08;102078.47;;;19.31;46.85
47154;BME280;32907;41.412;2.164;2024-01-25T05:16:36;102083.66;;;19.32;46.92
47154;BME280;32907;41.412;2.164;2024-01-25T05:19:04;102074.38;;;19.28;46.85
47154;BME280;32907;41.412;2.164;2024-01-25T05:21:32;102080.94;;;19.32;47.10
47154;BME280;32907;41.412;2.164;2024-01-25T05:24:00;102073.56;;;19.27;46.78
47154;BME280;32907;41.412;2.164;2024-01-25T05:26:29;102077.09;;;19.28;46.75
47154;BME280;32907;41.412;2.164;2024-01-25T05:28:57;102076.53;;;19.26;47.04
47154;BME280;32907;41.412;2.164;2024-01-25T05:31:26;102078.44;;;19.25;47.34
47154;BME280;32907;41.412;2.164;2024-01-25T05:33:54;102079.00;;;19.27;47.78
47154;BME280;32907;41.412;2.164;2024-01-25T05:36:23;102073.56;;;19.27;48.06
47154;BME280;32907;41.412;2.164;2024-01-25T05:38:51;102080.63;;;19.28;48.04
47154;BME280;32907;41.412;2.164;2024-01-25T05:41:19;102078.44;;;19.25;48.18
47154;BME280;32907;41.412;2.164;2024-01-25T05:43:47;102069.00;;;19.16;47.91
47154;BME280;32907;41.412;2.164;2024-01-25T05:46:15;102087.06;;;19.22;47.77
47154;BME280;32907;41.412;2.164;2024-01-25T05:48:44;102089.22;;;19.20;47.83
47154;BME280;32907;41.412;2.164;2024-01-25T05:51:12;102100.91;;;19.21;48.18
47154;BME280;32907;41.412;2.164;2024-01-25T05:53:41;102097.13;;;19.22;48.18
47154;BME280;32907;41.412;2.164;2024-01-25T05:56:09;102097.69;;;19.24;48.73
47154;BME280;32907;41.412;2.164;2024-01-25T05:58:37;102088.22;;;19.26;48.50
47154;BME280;32907;41.412;2.164;2024-01-25T06:01:06;102097.22;;;19.27;48.12
47154;BME280;32907;41.412;2.164;2024-01-25T06:03:36;102096.88;;;19.23;48.52
47154;BME280;32907;41.412;2.164;2024-01-25T06:06:04;102093.94;;;19.25;48.28
47154;BME280;32907;41.412;2.164;2024-01-25T06:08:36;102091.69;;;19.22;48.51
47154;BME280;32907;41.412;2.164;2024-01-25T06:11:04;102078.25;;;19.15;48.21
47154;BME280;32907;41.412;2.164;2024-01-25T06:13:33;102088.88;;;19.17;48.51
47154;BME280;32907;41.412;2.164;2024-01-25T06:16:01;102090.53;;;19.18;48.42
47154;BME280;32907;41.412;2.164;2024-01-25T06:18:29;102079.66;;;19.18;48.87
47154;BME280;32907;41.412;2.164;2024-01-25T06:20:58;102080.50;;;19.18;48.74
47154;BME280;32907;41.412;2.164;2024-01-25T06:23:26;102081.16;;;19.25;48.91
47154;BME280;32907;41.412;2.164;2024-01-25T06:25:54;102079.56;;;19.29;48.38
47154;BME280;32907;41.412;2.164;2024-01-25T06:28:23;102075.84;;;19.36;48.93
47154;BME280;32907;41.412;2.164;2024-01-25T06:30:52;102086.78;;;19.41;49.42
47154;BME280;32907;41.412;2.164;2024-01-25T06:33:20;102086.06;;;19.45;49.19
47154;BME280;32907;41.412;2.164;2024-01-25T06:35:50;102067.75;;;19.41;49.48
47154;BME280;32907;41.412;2.164;2024-01-25T06:38:18;102089.53;;;19.58;49.57
47154;BME280;32907;41.412;2.164;2024-01-25T06:40:46;102093.66;;;19.60;49.11
47154;BME280;32907;41.412;2.164;2024-01-25T06:43:15;102083.34;;;19.62;49.63
47154;BME280;32907;41.412;2.164;2024-01-25T06:45:43;102083.41;;;19.67;49.00
47154;BME280;32907;41.412;2.164;2024-01-25T06:48:12;102074.69;;;19.65;48.35
47154;BME280;32907;41.412;2.164;2024-01-25T06:50:40;102078.53;;;19.69;48.66
47154;BME280;32907;41.412;2.164;2024-01-25T06:53:09;102079.09;;;19.71;48.19
47154;BME280;32907;41.412;2.164;2024-01-25T06:55:37;102076.13;;;19.73;48.12
47154;BME280;32907;41.412;2.164;2024-01-25T06:58:05;102078.38;;;19.76;47.97
47154;BME280;32907;41.412;2.164;2024-01-25T07:00:34;102079.19;;;19.76;48.35
47154;BME280;32907;41.412;2.164;2024-01-25T07:03:03;102085.75;;;19.80;48.21
47154;BME280;32907;41.412;2.164;2024-01-25T07:05:31;102084.72;;;19.81;48.51
47154;BME280;32907;41.412;2.164;2024-01-25T07:08:02;102084.38;;;19.78;48.42
47154;BME280;32907;41.412;2.164;2024-01-25T07:10:30;102083.03;;;19.80;48.35
47154;BME280;32907;41.412;2.164;2024-01-25T07:13:00;102083.03;;;19.80;47.85
47154;BME280;32907;41.412;2.164;2024-01-25T07:15:28;102020.75;;;19.45;48.08
47154;BME280;32907;41.412;2.164;2024-01-25T07:17:56;102079.25;;;19.81;48.28
47154;BME280;32907;41.412;2.164;2024-01-25T07:20:24;102077.09;;;19.83;48.19
47154;BME280;32907;41.412;2.164;2024-01-25T07:22:53;102063.94;;;19.75;48.04
47154;BME280;32907;41.412;2.164;2024-01-25T07:25:21;102072.78;;;19.88;47.75
47154;BME280;32907;41.412;2.164;2024-01-25T07:27:50;102081.03;;;19.93;47.67
47154;BME280;32907;41.412;2.164;2024-01-25T07:30:18;102084.31;;;19.95;47.53
47154;BME280;32907;41.412;2.164;2024-01-25T07:32:47;102074.44;;;19.89;48.28
47154;BME280;32907;41.412;2.164;2024-01-25T07:35:18;102091.75;;;19.99;48.16
47154;BME280;32907;41.412;2.164;2024-01-25T07:37:46;102067.94;;;19.90;48.28
47154;BME280;32907;41.412;2.164;2024-01-25T07:40:15;102081.72;;;20.05;48.34
47154;BME280;32907;41.412;2.164;2024-01-25T07:42:46;102075.53;;;20.09;47.65
47154;BME280;32907;41.412;2.164;2024-01-25T07:45:15;102074.19;;;20.12;47.46
47154;BME280;32907;41.412;2.164;2024-01-25T07:47:43;102071.72;;;20.10;47.20
47154;BME280;32907;41.412;2.164;2024-01-25T07:50:12;102074.19;;;20.12;47.29
47154;BME280;32907;41.412;2.164;2024-01-25T07:52:40;102076.66;;;20.14;47.14
47154;BME280;32907;41.412;2.164;2024-01-25T07:55:08;102077.22;;;20.16;46.77
47154;BME280;32907;41.412;2.164;2024-01-25T07:57:36;102064.56;;;20.04;47.38
47154;BME280;32907;41.412;2.164;2024-01-25T08:00:05;102085.69;;;20.19;47.17
47154;BME280;32907;41.412;2.164;2024-01-25T08:02:37;102087.03;;;20.17;46.66
47154;BME280;32907;41.412;2.164;2024-01-25T08:05:08;102087.03;;;20.17;47.22
47154;BME280;32907;41.412;2.164;2024-01-25T08:07:37;102083.25;;;20.18;47.49
47154;BME280;32907;41.412;2.164;2024-01-25T08:10:05;102071.34;;;20.24;47.34
47154;BME280;32907;41.412;2.164;2024-01-25T08:12:34;102069.38;;;20.19;47.02
47154;BME280;32907;41.412;2.164;2024-01-25T08:15:02;102066.53;;;20.09;46.31
47154;BME280;32907;41.412;2.164;2024-01-25T08:17:30;102060.97;;;19.99;46.59
47154;BME280;32907;41.412;2.164;2024-01-25T08:19:59;102095.16;;;20.11;47.07
47154;BME280;32907;41.412;2.164;2024-01-25T08:22:28;102077.50;;;20.14;47.06
47154;BME280;32907;41.412;2.164;2024-01-25T08:24:56;102070.97;;;20.15;46.95
47154;BME280;32907;41.412;2.164;2024-01-25T08:27:24;102056.91;;;20.01;47.13
47154;BME280;32907;41.412;2.164;2024-01-25T08:29:53;102073.69;;;20.15;46.78
47154;BME280;32907;41.412;2.164;2024-01-25T08:32:21;102077.22;;;20.16;46.50
47154;BME280;32907;41.412;2.164;2024-01-25T08:34:49;102081.59;;;20.17;46.86
47154;BME280;32907;41.412;2.164;2024-01-25T08:37:18;102092.78;;;20.20;46.84
47154;BME280;32907;41.412;2.164;2024-01-25T08:39:46;102092.31;;;20.23;46.90
47154;BME280;32907;41.412;2.164;2024-01-25T08:42:18;102101.56;;;20.22;47.41
47154;BME280;32907;41.412;2.164;2024-01-25T08:44:46;102096.75;;;20.29;47.04
47154;BME280;32907;41.412;2.164;2024-01-25T08:47:18;102096.22;;;20.32;46.83
47154;BME280;32907;41.412;2.164;2024-01-25T08:49:46;102092.41;;;20.33;47.08
47154;BME280;32907;41.412;2.164;2024-01-25T08:52:14;102091.06;;;20.36;46.94
47154;BME280;32907;41.412;2.164;2024-01-25T08:54:43;102077.34;;;20.26;46.62
47154;BME280;32907;41.412;2.164;2024-01-25T08:57:11;102094.63;;;20.36;47.01
47154;BME280;32907;41.412;2.164;2024-01-25T08:59:39;102099.00;;;20.37;46.63
47154;BME280;32907;41.412;2.164;2024-01-25T09:02:08;102101.72;;;20.37;46.87
47154;BME280;32907;41.412;2.164;2024-01-25T09:04:36;102098.69;;;20.34;46.67
47154;BME280;32907;41.412;2.164;2024-01-25T09:07:05;102111.56;;;20.38;46.59
47154;BME280;32907;41.412;2.164;2024-01-25T09:09:34;102113.69;;;20.36;46.25
47154;BME280;32907;41.412;2.164;2024-01-25T09:12:04;102106.34;;;20.37;46.33
47154;BME280;32907;41.412;2.164;2024-01-25T09:14:33;102106.09;;;20.38;46.00
47154;BME280;32907;41.412;2.164;2024-01-25T09:17:01;102112.88;;;20.36;46.22
47154;BME280;32907;41.412;2.164;2024-01-25T09:19:29;102115.03;;;20.34;45.79
47154;BME280;32907;41.412;2.164;2024-01-25T09:21:58;102118.00;;;20.32;45.00
47154;BME280;32907;41.412;2.164;2024-01-25T09:24:32;102122.31;;;20.28;45.26
47154;BME280;32907;41.412;2.164;2024-01-25T09:27:04;102121.47;;;20.28;44.79
47154;BME280;32907;41.412;2.164;2024-01-25T09:29:32;102114.91;;;20.24;45.02
47154;BME280;32907;41.412;2.164;2024-01-25T09:32:02;102118.47;;;20.24;44.68
47154;BME280;32907;41.412;2.164;2024-01-25T09:34:30;102118.97;;;20.21;44.50
47154;BME280;32907;41.412;2.164;2024-01-25T09:36:59;102106.41;;;20.20;44.36
47154;BME280;32907;41.412;2.164;2024-01-25T09:39:28;102120.03;;;20.20;45.10
47154;BME280;32907;41.412;2.164;2024-01-25T09:41:57;102112.44;;;20.22;44.81
47154;BME280;32907;41.412;2.164;2024-01-25T09:44:25;102127.44;;;20.25;44.60
47154;BME280;32907;41.412;2.164;2024-01-25T09:46:54;102119.53;;;20.23;44.80
47154;BME280;32907;41.412;2.164;2024-01-25T09:49:24;102125.56;;;20.25;44.86
47154;BME280;32907;41.412;2.164;2024-01-25T09:51:53;102128.78;;;20.22;44.84
47154;BME280;32907;41.412;2.164;2024-01-25T09:54:23;102135.88;;;20.23;45.38
47154;BME280;32907;41.412;2.164;2024-01-25T09:56:53;102133.97;;;20.24;44.96
47154;BME280;32907;41.412;2.164;2024-01-25T09:59:22;102107.69;;;20.12;44.85
47154;BME280;32907;41.412;2.164;2024-01-25T10:01:50;102129.66;;;20.28;45.26
47154;BME280;32907;41.412;2.164;2024-01-25T10:04:18;102128.00;;;20.27;45.67
47154;BME280;32907;41.412;2.164;2024-01-25T10:06:50;102115.66;;;20.19;45.43
47154;BME280;32907;41.412;2.164;2024-01-25T10:09:18;102139.81;;;20.32;45.62
47154;BME280;32907;41.412;2.164;2024-01-25T10:11:46;102139.81;;;20.32;45.25
47154;BME280;32907;41.412;2.164;2024-01-25T10:14:30;102104.22;;;20.17;45.26
47154;BME280;32907;41.412;2.164;2024-01-25T10:17:00;102119.53;;;20.23;45.15
47154;BME280;32907;41.412;2.164;2024-01-25T10:19:29;102134.03;;;20.29;45.50
47154;BME280;32907;41.412;2.164;2024-01-25T10:21:57;102143.91;;;20.35;45.22
47154;BME280;32907;41.412;2.164;2024-01-25T10:24:27;102146.38;;;20.36;44.92
47154;BME280;32907;41.412;2.164;2024-01-25T10:26:56;102147.19;;;20.37;45.12
47154;BME280;32907;41.412;2.164;2024-01-25T10:29:25;102145.88;;;20.39;44.77
47154;BME280;32907;41.412;2.164;2024-01-25T10:31:54;102131.00;;;20.25;44.64
47154;BME280;32907;41.412;2.164;2024-01-25T10:34:23;102135.25;;;20.38;45.01
47154;BME280;32907;41.412;2.164;2024-01-25T10:36:53;102137.97;;;20.38;44.78
47154;BME280;32907;41.412;2.164;2024-01-25T10:39:21;102137.44;;;20.41;44.50
47154;BME280;32907;41.412;2.164;2024-01-25T10:41:50;102131.13;;;20.35;44.58
47154;BME280;32907;41.412;2.164;2024-01-25T10:44:19;102139.63;;;20.39;44.74
47154;BME280;32907;41.412;2.164;2024-01-25T10:46:48;102132.53;;;20.38;45.08
47154;BME280;32907;41.412;2.164;2024-01-25T10:49:18;102127.91;;;20.38;45.14
47154;BME280;32907;41.412;2.164;2024-01-25T10:51:47;102132.25;;;20.39;44.84
47154;BME280;32907;41.412;2.164;2024-01-25T10:54:18;102125.72;;;20.40;45.27
47154;BME280;32907;41.412;2.164;2024-01-25T10:56:46;102126.28;;;20.43;45.01
47154;BME280;32907;41.412;2.164;2024-01-25T10:59:18;102118.94;;;20.43;45.19
47154;BME280;32907;41.412;2.164;2024-01-25T11:01:46;102126.41;;;20.48;45.53
47154;BME280;32907;41.412;2.164;2024-01-25T11:04:18;102127.50;;;20.52;45.91
47154;BME280;32907;41.412;2.164;2024-01-25T11:06:47;102126.44;;;20.53;45.54
47154;BME280;32907;41.412;2.164;2024-01-25T11:09:21;102118.25;;;20.53;45.75
47154;BME280;32907;41.412;2.164;2024-01-25T11:11:50;102117.19;;;20.54;45.12
47154;BME280;32907;41.412;2.164;2024-01-25T11:14:25;102107.34;;;20.53;44.88
47154;BME280;32907;41.412;2.164;2024-01-25T11:16:54;102106.31;;;20.54;44.65
47154;BME280;32907;41.412;2.164;2024-01-25T11:19:22;102106.88;;;20.56;44.27
47154;BME280;32907;41.412;2.164;2024-01-25T11:21:52;102103.56;;;20.54;44.52
47154;BME280;32907;41.412;2.164;2024-01-25T11:24:22;102109.31;;;20.57;44.71
47154;BME280;32907;41.412;2.164;2024-01-25T11:26:51;102099.78;;;20.55;45.64
47154;BME280;32907;41.412;2.164;2024-01-25T11:29:20;102101.72;;;20.59;45.95
47154;BME280;32907;41.412;2.164;2024-01-25T11:31:51;102100.41;;;20.62;46.00
47154;BME280;32907;41.412;2.164;2024-01-25T11:34:19;102100.94;;;20.64;46.45
47154;BME280;32907;41.412;2.164;2024-01-25T11:36:49;102081.50;;;20.55;46.82
47154;BME280;32907;41.412;2.164;2024-01-25T11:39:17;102087.59;;;20.62;46.71
47154;BME280;32907;41.412;2.164;2024-01-25T11:41:46;102087.81;;;20.61;46.38
47154;BME280;32907;41.412;2.164;2024-01-25T11:44:15;102076.34;;;20.59;46.10
47154;BME280;32907;41.412;2.164;2024-01-25T11:46:43;102075.53;;;20.58;46.33
47154;BME280;32907;41.412;2.164;2024-01-25T11:49:12;102064.38;;;20.60;45.95
47154;BME280;32907;41.412;2.164;2024-01-25T11:51:40;102070.66;;;20.60;46.38
47154;BME280;32907;41.412;2.164;2024-01-25T11:54:10;102053.47;;;20.60;46.22
47154;BME280;32907;41.412;2.164;2024-01-25T11:56:39;102058.91;;;20.60;46.36
47154;BME280;32907;41.412;2.164;2024-01-25T11:59:10;102046.69;;;20.62;46.15
47154;BME280;32907;41.412;2.164;2024-01-25T12:01:39;102036.81;;;20.56;45.85
47154;BME280;32907;41.412;2.164;2024-01-25T12:04:09;102043.09;;;20.57;45.76
47154;BME280;32907;41.412;2.164;2024-01-25T12:06:38;102041.75;;;20.59;45.34
47154;BME280;32907;41.412;2.164;2024-01-25T12:09:10;102038.19;;;20.59;45.59
47154;BME280;32907;41.412;2.164;2024-01-25T12:11:41;102024.31;;;20.60;45.80
47154;BME280;32907;41.412;2.164;2024-01-25T12:14:10;102027.34;;;20.64;46.04
47154;BME280;32907;41.412;2.164;2024-01-25T12:16:39;102029.00;;;20.65;46.20
47154;BME280;32907;41.412;2.164;2024-01-25T12:19:08;102014.84;;;20.68;45.79
47154;BME280;32907;41.412;2.164;2024-01-25T12:21:36;102019.25;;;20.74;45.94
47154;BME280;32907;41.412;2.164;2024-01-25T12:24:06;102015.19;;;20.77;46.28
47154;BME280;32907;41.412;2.164;2024-01-25T12:26:36;102005.41;;;20.81;46.30
47154;BME280;32907;41.412;2.164;2024-01-25T12:29:05;101999.97;;;20.81;46.88
47154;BME280;32907;41.412;2.164;2024-01-25T12:31:34;101994.78;;;20.84;46.99
47154;BME280;32907;41.412;2.164;2024-01-25T12:34:02;101998.94;;;20.87;46.76
47154;BME280;32907;41.412;2.164;2024-01-25T12:36:31;101988.03;;;20.87;46.86
47154;BME280;32907;41.412;2.164;2024-01-25T12:39:01;101986.41;;;20.91;46.64
47154;BME280;32907;41.412;2.164;2024-01-25T12:41:30;101980.41;;;20.89;47.18
47154;BME280;32907;41.412;2.164;2024-01-25T12:43:59;101977.66;;;20.89;47.32
47154;BME280;32907;41.412;2.164;2024-01-25T12:46:28;101971.13;;;20.90;46.76
47154;BME280;32907;41.412;2.164;2024-01-25T12:48:57;101971.13;;;20.90;47.31
47154;BME280;32907;41.412;2.164;2024-01-25T12:51:26;101961.84;;;20.91;47.20
47154;BME280;32907;41.412;2.164;2024-01-25T12:53:55;101956.13;;;20.92;46.73
47154;BME280;32907;41.412;2.164;2024-01-25T12:56:24;101939.16;;;20.80;46.82
47154;BME280;32907;41.412;2.164;2024-01-25T12:58:53;101949.31;;;20.90;47.39